createdAt,value
2022-11-20T00:00:04.747Z,72867.84
2022-11-20T00:00:42.039Z,72873.84
2022-11-20T00:01:15.854Z,72873.84
2022-11-20T00:01:50.793Z,72877.84
2022-11-20T00:02:23.160Z,72869.84
2022-11-20T00:02:55.444Z,72871.84
2022-11-20T00:03:30.466Z,72877.84
2022-11-20T00:04:02.816Z,72875.84
2022-11-20T00:04:35.096Z,72873.84
2022-11-20T00:05:11.700Z,72873.84
2022-11-20T00:05:44.080Z,72877.84
2022-11-20T00:06:17.906Z,72877.84
2022-11-20T00:06:52.980Z,72877.84
2022-11-20T00:07:25.363Z,72877.84
2022-11-20T00:07:57.718Z,72879.81
2022-11-20T00:08:30.047Z,72879.81
2022-11-20T00:09:06.382Z,72873.84
2022-11-20T00:09:38.647Z,72873.84
2022-11-20T00:10:10.988Z,72875.84
2022-11-20T00:10:45.859Z,72881.81
2022-11-20T00:11:22.943Z,72873.84
2022-11-20T00:11:55.209Z,72877.84
2022-11-20T00:12:27.501Z,72881.81
2022-11-20T00:13:02.522Z,72881.81
2022-11-20T00:13:35.045Z,72885.81
2022-11-20T00:14:07.299Z,72881.81
2022-11-20T00:14:42.376Z,72881.81
2022-11-20T00:15:14.773Z,72879.81
2022-11-20T00:15:47.024Z,72883.81
2022-11-20T00:16:23.281Z,72885.81
2022-11-20T00:16:55.541Z,72883.81
2022-11-20T00:17:27.860Z,72877.84
2022-11-20T00:18:02.756Z,72883.81
2022-11-20T00:18:35.594Z,72885.81
2022-11-20T00:19:10.495Z,72885.81
2022-11-20T00:19:42.751Z,72889.81
2022-11-20T00:20:15.799Z,72881.81
2022-11-20T00:20:48.189Z,72885.81
2022-11-20T00:21:24.920Z,72889.81
2022-11-20T00:21:57.181Z,72889.81
2022-11-20T00:22:29.471Z,72885.81
2022-11-20T00:23:04.392Z,72885.81
2022-11-20T00:23:36.653Z,72893.81
2022-11-20T00:24:12.903Z,72889.81
2022-11-20T00:24:45.241Z,72889.81
2022-11-20T00:25:17.675Z,72893.81
2022-11-20T00:25:55.272Z,72901.78
2022-11-20T00:26:29.604Z,72889.81
2022-11-20T00:27:01.866Z,72893.81
2022-11-20T00:27:36.846Z,72901.78
2022-11-20T00:28:09.124Z,72893.81
2022-11-20T00:28:42.183Z,72891.81
2022-11-20T00:29:17.233Z,72901.78
2022-11-20T00:29:49.737Z,72901.78
2022-11-20T00:30:22.112Z,72903.78
2022-11-20T00:30:59.140Z,72903.78
2022-11-20T00:31:31.887Z,72905.78
2022-11-20T00:32:04.440Z,72901.78
2022-11-20T00:32:39.375Z,72905.78
2022-11-20T00:33:11.629Z,72905.78
2022-11-20T00:33:44.730Z,72893.81
2022-11-20T00:34:19.631Z,72901.78
2022-11-20T00:34:51.913Z,72905.78
2022-11-20T00:35:24.203Z,72909.78
2022-11-20T00:36:04.897Z,72907.78
2022-11-20T00:36:37.165Z,72905.78
2022-11-20T00:37:12.089Z,72905.78
2022-11-20T00:37:44.396Z,72909.78
2022-11-20T00:38:16.656Z,72909.78
2022-11-20T00:38:55.249Z,72909.78
2022-11-20T00:39:27.514Z,72905.78
2022-11-20T00:39:59.789Z,72905.78
2022-11-20T00:40:34.711Z,72905.78
2022-11-20T00:41:11.000Z,72901.78
2022-11-20T00:41:45.912Z,72913.75
2022-11-20T00:42:18.176Z,72911.75
2022-11-20T00:42:50.448Z,72905.78
2022-11-20T00:43:25.344Z,72905.78
2022-11-20T00:43:58.176Z,72905.78
2022-11-20T00:44:30.461Z,72905.78
2022-11-20T00:45:05.569Z,72909.78
2022-11-20T00:45:38.280Z,72901.78
2022-11-20T00:46:12.108Z,72917.75
2022-11-20T00:46:47.023Z,72907.78
2022-11-20T00:47:19.329Z,72907.78
2022-11-20T00:47:51.603Z,72909.78
2022-11-20T00:48:26.497Z,72907.78
2022-11-20T00:48:58.923Z,72913.75
2022-11-20T00:49:34.007Z,72915.75
2022-11-20T00:50:06.976Z,72909.78
2022-11-20T00:50:39.291Z,72909.78
2022-11-20T00:51:16.267Z,72915.75
2022-11-20T00:51:48.587Z,72913.75
2022-11-20T00:52:20.861Z,72913.75
2022-11-20T00:52:55.793Z,72911.75
2022-11-20T00:53:28.276Z,72915.75
2022-11-20T00:54:01.327Z,72909.78
2022-11-20T00:54:36.272Z,72917.75
2022-11-20T00:55:09.009Z,72919.75
2022-11-20T00:55:41.318Z,72913.75
2022-11-20T00:56:20.057Z,72917.75
2022-11-20T00:56:54.233Z,72917.75
2022-11-20T00:57:26.532Z,72919.75
2022-11-20T00:58:04.415Z,72921.75
2022-11-20T00:58:38.875Z,72913.75
2022-11-20T00:59:11.349Z,72917.75
2022-11-20T00:59:46.283Z,72913.75
2022-11-20T01:00:19.182Z,72921.75
2022-11-20T01:00:51.563Z,72921.75
2022-11-20T01:01:30.382Z,72917.75
2022-11-20T01:02:02.769Z,72919.75
2022-11-20T01:02:35.064Z,72921.75
2022-11-20T01:03:09.972Z,72917.75
2022-11-20T01:03:44.065Z,72921.75
2022-11-20T01:04:16.419Z,72925.75
2022-11-20T01:04:51.365Z,72921.75
2022-11-20T01:05:23.616Z,72921.75
2022-11-20T01:05:55.866Z,72925.75
2022-11-20T01:06:32.518Z,72927.72
2022-11-20T01:07:04.841Z,72929.72
2022-11-20T01:07:37.204Z,72933.72
2022-11-20T01:08:12.283Z,72927.72
2022-11-20T01:08:45.857Z,72929.72
2022-11-20T01:09:18.263Z,72931.72
2022-11-20T01:09:53.399Z,72925.75
2022-11-20T01:10:25.673Z,72929.72
2022-11-20T01:11:00.602Z,72931.72
2022-11-20T01:11:40.144Z,72939.72
2022-11-20T01:12:12.405Z,72935.72
2022-11-20T01:12:44.669Z,72933.72
2022-11-20T01:13:31.985Z,72937.72
2022-11-20T01:14:08.653Z,72941.72
2022-11-20T01:14:40.912Z,72937.72
2022-11-20T01:15:13.219Z,72939.72
2022-11-20T01:15:48.125Z,72935.72
2022-11-20T01:16:21.918Z,72935.72
2022-11-20T01:16:56.981Z,72935.72
2022-11-20T01:17:29.249Z,72941.72
2022-11-20T01:18:01.571Z,72933.72
2022-11-20T01:18:34.055Z,72935.72
2022-11-20T01:19:11.586Z,72947.69
2022-11-20T01:19:45.343Z,72937.72
2022-11-20T01:20:17.644Z,72941.72
2022-11-20T01:20:52.541Z,72945.69
2022-11-20T01:21:26.420Z,72943.69
2022-11-20T01:22:01.362Z,72941.72
2022-11-20T01:22:34.224Z,72939.72
2022-11-20T01:23:06.521Z,72941.72
2022-11-20T01:23:43.419Z,72941.72
2022-11-20T01:24:17.275Z,72951.69
2022-11-20T01:24:49.654Z,72937.72
2022-11-20T01:25:25.224Z,72945.69
2022-11-20T01:25:57.986Z,72945.69
2022-11-20T01:26:34.192Z,72943.69
2022-11-20T01:27:09.055Z,72947.69
2022-11-20T01:27:41.353Z,72947.69
2022-11-20T01:28:16.331Z,72945.69
2022-11-20T01:28:49.536Z,72941.72
2022-11-20T01:29:24.432Z,72947.69
2022-11-20T01:30:01.224Z,72945.69
2022-11-20T01:30:33.766Z,72945.69
2022-11-20T01:31:13.183Z,72949.69
2022-11-20T01:31:48.410Z,72949.69
2022-11-20T01:32:20.668Z,72945.69
2022-11-20T01:32:52.926Z,72943.69
2022-11-20T01:33:28.060Z,72949.69
2022-11-20T01:34:01.478Z,72945.69
2022-11-20T01:34:36.590Z,72945.69
2022-11-20T01:35:10.742Z,72947.69
2022-11-20T01:35:43.000Z,72947.69
2022-11-20T01:36:19.274Z,72949.69
2022-11-20T01:36:52.281Z,72949.69
2022-11-20T01:37:24.550Z,72951.69
2022-11-20T01:37:59.453Z,72949.69
2022-11-20T01:38:31.752Z,72945.69
2022-11-20T01:39:06.556Z,72947.69
2022-11-20T01:39:41.448Z,72949.69
2022-11-20T01:40:13.875Z,72957.69
2022-11-20T01:40:46.112Z,72955.69
2022-11-20T01:41:33.227Z,72953.69
2022-11-20T01:42:20.579Z,72953.69
2022-11-20T01:43:26.603Z,72965.66
2022-11-20T01:43:58.962Z,72957.69
2022-11-20T01:44:50.499Z,72961.66
2022-11-20T01:46:07.369Z,72957.69
2022-11-20T01:46:42.433Z,72961.66
2022-11-20T01:47:15.776Z,72957.69
2022-11-20T01:47:51.444Z,72963.66
2022-11-20T01:48:25.617Z,72957.69
2022-11-20T01:49:01.588Z,72953.69
2022-11-20T01:49:40.903Z,72959.66
2022-11-20T01:50:16.865Z,72961.66
2022-11-20T01:50:49.732Z,72957.69
2022-11-20T01:51:29.333Z,72963.66
2022-11-20T01:52:04.348Z,72961.66
2022-11-20T01:52:41.636Z,72961.66
2022-11-20T01:53:19.307Z,72963.66
2022-11-20T01:53:51.820Z,72957.69
2022-11-20T01:54:26.644Z,72963.66
2022-11-20T01:55:06.535Z,72959.66
2022-11-20T01:55:43.225Z,72957.69
2022-11-20T01:56:15.946Z,72965.66
2022-11-20T01:56:52.632Z,72957.69
2022-11-20T01:57:27.199Z,72963.66
2022-11-20T01:58:02.916Z,72957.69
2022-11-20T01:58:40.070Z,72953.69
2022-11-20T01:59:15.177Z,72957.69
2022-11-20T01:59:52.236Z,72953.69
2022-11-20T02:00:27.864Z,72961.66
2022-11-20T02:01:00.242Z,72955.69
2022-11-20T02:01:32.720Z,72961.66
2022-11-20T02:02:07.763Z,72961.66
2022-11-20T02:02:41.321Z,72965.66
2022-11-20T02:03:16.031Z,72961.66
2022-11-20T02:03:51.624Z,72963.66
2022-11-20T02:04:24.865Z,72963.66
2022-11-20T02:04:59.012Z,72955.69
2022-11-20T02:05:37.968Z,72953.69
2022-11-20T02:06:14.625Z,72959.66
2022-11-20T02:06:49.617Z,72957.69
2022-11-20T02:07:25.217Z,72961.66
2022-11-20T02:07:58.063Z,72961.66
2022-11-20T02:08:30.916Z,72957.69
2022-11-20T02:09:05.959Z,72961.66
2022-11-20T02:09:38.225Z,72967.66
2022-11-20T02:10:10.490Z,72959.66
2022-11-20T02:10:45.388Z,72961.66
2022-11-20T02:11:17.724Z,72965.66
2022-11-20T02:11:50.111Z,72963.66
2022-11-20T02:12:37.509Z,72965.66
2022-11-20T02:13:27.463Z,72965.66
2022-11-20T02:14:00.271Z,72957.69
2022-11-20T02:14:35.164Z,72957.69
2022-11-20T02:15:07.920Z,72957.69
2022-11-20T02:15:40.164Z,72961.66
2022-11-20T02:16:27.947Z,72953.69
2022-11-20T02:17:00.221Z,72953.69
2022-11-20T02:17:32.499Z,72957.69
2022-11-20T02:18:08.298Z,72957.69
2022-11-20T02:18:41.150Z,72961.66
2022-11-20T02:19:27.190Z,72957.69
2022-11-20T02:19:59.451Z,72949.69
2022-11-20T02:20:31.703Z,72953.69
2022-11-20T02:21:07.922Z,72955.69
2022-11-20T02:21:47.389Z,72961.66
2022-11-20T02:22:23.620Z,72961.66
2022-11-20T02:22:58.701Z,72957.69
2022-11-20T02:23:37.291Z,72957.69
2022-11-20T02:24:14.014Z,72963.66
2022-11-20T02:24:49.322Z,72959.66
2022-11-20T02:25:21.689Z,72963.66
2022-11-20T02:25:54.316Z,72965.66
2022-11-20T02:26:27.978Z,72959.66
2022-11-20T02:27:04.566Z,72965.66
2022-11-20T02:27:36.909Z,72961.66
2022-11-20T02:28:09.204Z,72963.66
2022-11-20T02:28:41.596Z,72961.66
2022-11-20T02:29:17.814Z,72961.66
2022-11-20T02:29:52.561Z,72961.66
2022-11-20T02:30:25.093Z,72969.66
2022-11-20T02:30:59.974Z,72963.66
2022-11-20T02:31:37.949Z,72967.66
2022-11-20T02:32:22.205Z,72973.63
2022-11-20T02:32:54.488Z,72969.66
2022-11-20T02:33:26.735Z,72975.63
2022-11-20T02:33:59.293Z,72967.66
2022-11-20T02:34:34.333Z,72975.63
2022-11-20T02:35:11.106Z,72969.66
2022-11-20T02:35:47.074Z,72975.63
2022-11-20T02:36:21.994Z,72977.63
2022-11-20T02:36:54.639Z,72973.63
2022-11-20T02:37:32.024Z,72977.63
2022-11-20T02:38:06.944Z,72973.63
2022-11-20T02:38:39.435Z,72973.63
2022-11-20T02:39:15.009Z,72973.63
2022-11-20T02:39:50.608Z,72971.66
2022-11-20T02:40:23.309Z,72969.66
2022-11-20T02:40:56.038Z,72969.66
2022-11-20T02:41:35.517Z,72969.66
2022-11-20T02:42:07.773Z,72973.63
2022-11-20T02:42:40.023Z,72975.63
2022-11-20T02:43:14.984Z,72973.63
2022-11-20T02:43:47.232Z,72979.63
2022-11-20T02:44:21.232Z,72979.63
2022-11-20T02:44:56.091Z,72975.63
2022-11-20T02:45:28.380Z,72969.66
2022-11-20T02:46:00.634Z,72975.63
2022-11-20T02:46:36.111Z,72969.66
2022-11-20T02:47:08.461Z,72971.66
2022-11-20T02:47:41.012Z,72965.66
2022-11-20T02:48:15.952Z,72977.63
2022-11-20T02:48:48.444Z,72967.66
2022-11-20T02:49:23.589Z,72969.66
2022-11-20T02:49:56.169Z,72969.66
2022-11-20T02:50:28.519Z,72977.63
2022-11-20T02:51:00.834Z,72977.63
2022-11-20T02:51:36.145Z,72977.63
2022-11-20T02:52:08.452Z,72969.66
2022-11-20T02:52:40.744Z,72973.63
2022-11-20T02:53:13.001Z,72969.66
2022-11-20T02:53:48.139Z,72977.63
2022-11-20T02:54:23.031Z,72969.66
2022-11-20T02:54:55.324Z,72977.63
2022-11-20T02:55:30.291Z,72973.63
2022-11-20T02:56:02.545Z,72973.63
2022-11-20T02:56:37.472Z,72973.63
2022-11-20T02:57:09.764Z,72973.63
2022-11-20T02:57:42.129Z,72973.63
2022-11-20T02:58:14.389Z,72975.63
2022-11-20T02:58:49.344Z,72973.63
2022-11-20T02:59:21.827Z,72969.66
2022-11-20T02:59:54.359Z,72975.63
2022-11-20T03:00:29.469Z,72973.63
2022-11-20T03:01:01.832Z,72973.63
2022-11-20T03:01:34.550Z,72973.63
2022-11-20T03:02:09.787Z,72975.63
2022-11-20T03:02:42.379Z,72969.66
2022-11-20T03:03:15.042Z,72973.63
2022-11-20T03:03:50.347Z,72977.63
2022-11-20T03:04:22.681Z,72969.66
2022-11-20T03:04:54.949Z,72977.63
2022-11-20T03:05:27.199Z,72973.63
2022-11-20T03:06:03.433Z,72973.63
2022-11-20T03:06:35.750Z,72973.63
2022-11-20T03:07:09.399Z,72969.66
2022-11-20T03:07:44.427Z,72977.63
2022-11-20T03:08:16.726Z,72973.63
2022-11-20T03:08:49.193Z,72973.63
2022-11-20T03:09:26.757Z,72981.63
2022-11-20T03:09:59.027Z,72971.66
2022-11-20T03:10:31.285Z,72973.63
2022-11-20T03:11:07.767Z,72975.63
2022-11-20T03:11:40.063Z,72973.63
2022-11-20T03:12:12.329Z,72969.66
2022-11-20T03:12:47.201Z,72973.63
2022-11-20T03:13:19.473Z,72969.66
2022-11-20T03:13:51.787Z,72967.66
2022-11-20T03:14:26.699Z,72969.66
2022-11-20T03:14:58.992Z,72969.66
2022-11-20T03:15:31.257Z,72971.66
2022-11-20T03:16:14.073Z,72967.66
2022-11-20T03:16:46.400Z,72969.66
2022-11-20T03:17:18.708Z,72969.66
2022-11-20T03:17:54.885Z,72965.66
2022-11-20T03:18:32.473Z,72965.66
2022-11-20T03:19:04.825Z,72969.66
2022-11-20T03:19:37.132Z,72969.66
2022-11-20T03:20:13.435Z,72971.66
2022-11-20T03:20:45.703Z,72969.66
2022-11-20T03:21:20.613Z,72965.66
2022-11-20T03:21:52.911Z,72975.63
2022-11-20T03:22:25.188Z,72973.63
2022-11-20T03:23:00.135Z,72969.66
2022-11-20T03:23:33.240Z,72967.66
2022-11-20T03:24:06.373Z,72967.66
2022-11-20T03:24:43.885Z,72971.66
2022-11-20T03:25:16.339Z,72969.66
2022-11-20T03:25:48.593Z,72973.63
2022-11-20T03:26:25.339Z,72973.63
2022-11-20T03:26:57.661Z,72967.66
2022-11-20T03:27:33.567Z,72973.63
2022-11-20T03:28:05.979Z,72973.63
2022-11-20T03:28:41.274Z,72967.66
2022-11-20T03:29:13.603Z,72973.63
2022-11-20T03:29:45.852Z,72977.63
2022-11-20T03:30:21.149Z,72977.63
2022-11-20T03:30:53.443Z,72965.66
2022-11-20T03:31:27.127Z,72949.69
2022-11-20T03:32:02.049Z,72933.72
2022-11-20T03:32:34.310Z,72911.75
2022-11-20T03:33:06.561Z,72901.78
2022-11-20T03:33:42.123Z,72885.81
2022-11-20T03:34:14.680Z,72869.84
2022-11-20T03:34:46.933Z,72861.88
2022-11-20T03:35:21.847Z,72849.88
2022-11-20T03:35:54.122Z,72841.91
2022-11-20T03:36:27.132Z,72835.91
2022-11-20T03:37:02.070Z,72821.94
2022-11-20T03:37:34.374Z,72815.97
2022-11-20T03:38:06.836Z,72805.97
2022-11-20T03:38:42.200Z,72803.97
2022-11-20T03:39:14.622Z,72809.97
2022-11-20T03:39:49.504Z,72790.00
2022-11-20T03:40:24.401Z,72790.00
2022-11-20T03:41:00.077Z,72792.00
2022-11-20T03:41:36.884Z,72780.03
2022-11-20T03:42:33.729Z,72788.00
2022-11-20T03:43:06.008Z,72776.03
2022-11-20T03:43:41.370Z,72770.06
2022-11-20T03:44:13.696Z,72770.06
2022-11-20T03:44:46.019Z,72774.03
2022-11-20T03:45:22.187Z,72766.06
2022-11-20T03:45:54.452Z,72764.06
2022-11-20T03:46:27.568Z,72770.06
2022-11-20T03:47:02.473Z,72766.06
2022-11-20T03:47:34.795Z,72758.06
2022-11-20T03:48:09.741Z,72762.06
2022-11-20T03:48:41.990Z,72762.06
2022-11-20T03:49:16.887Z,72756.06
2022-11-20T03:49:49.159Z,72750.09
2022-11-20T03:50:21.420Z,72758.06
2022-11-20T03:50:56.520Z,72750.09
2022-11-20T03:51:29.779Z,72754.09
2022-11-20T03:52:02.028Z,72746.09
2022-11-20T03:52:36.969Z,72750.09
2022-11-20T03:53:09.216Z,72750.09
2022-11-20T03:53:44.996Z,72746.09
2022-11-20T03:54:17.260Z,72744.09
2022-11-20T03:54:52.123Z,72742.09
2022-11-20T03:55:27.017Z,72746.09
2022-11-20T03:55:59.269Z,72742.09
2022-11-20T03:56:33.094Z,72738.13
2022-11-20T03:57:08.099Z,72742.09
2022-11-20T03:57:40.407Z,72746.09
2022-11-20T03:58:12.725Z,72742.09
2022-11-20T03:58:47.735Z,72742.09
2022-11-20T03:59:20.253Z,72746.09
2022-11-20T03:59:52.787Z,72748.09
2022-11-20T04:00:27.719Z,72746.09
2022-11-20T04:01:06.007Z,72750.09
2022-11-20T04:01:38.606Z,72748.09
2022-11-20T04:02:13.877Z,72742.09
2022-11-20T04:02:46.233Z,72744.09
2022-11-20T04:03:18.495Z,72742.09
2022-11-20T04:03:55.712Z,72742.09
2022-11-20T04:04:28.027Z,72746.09
2022-11-20T04:05:00.312Z,72740.09
2022-11-20T04:05:37.079Z,72746.09
2022-11-20T04:06:11.292Z,72742.09
2022-11-20T04:06:43.545Z,72738.13
2022-11-20T04:07:18.520Z,72734.13
2022-11-20T04:07:50.815Z,72738.13
2022-11-20T04:08:23.072Z,72734.13
2022-11-20T04:08:58.776Z,72738.13
2022-11-20T04:09:31.025Z,72740.09
2022-11-20T04:10:06.897Z,72738.13
2022-11-20T04:10:42.027Z,72742.09
2022-11-20T04:11:15.909Z,72738.13
2022-11-20T04:11:48.151Z,72746.09
2022-11-20T04:12:23.063Z,72734.13
2022-11-20T04:12:55.362Z,72742.09
2022-11-20T04:13:27.616Z,72742.09
2022-11-20T04:14:03.865Z,72742.09
2022-11-20T04:14:36.189Z,72736.13
2022-11-20T04:15:09.343Z,72732.13
2022-11-20T04:15:44.220Z,72738.13
2022-11-20T04:16:16.705Z,72736.13
2022-11-20T04:16:48.953Z,72738.13
2022-11-20T04:17:23.933Z,72746.09
2022-11-20T04:17:56.421Z,72742.09
2022-11-20T04:18:28.696Z,72740.09
2022-11-20T04:19:05.416Z,72738.13
2022-11-20T04:19:37.756Z,72734.13
2022-11-20T04:20:10.669Z,72740.09
2022-11-20T04:20:45.588Z,72734.13
2022-11-20T04:21:17.843Z,72740.09
2022-11-20T04:21:50.101Z,72738.13
2022-11-20T04:22:22.386Z,72738.13
2022-11-20T04:22:58.583Z,72740.09
2022-11-20T04:23:31.146Z,72738.13
2022-11-20T04:24:03.673Z,72742.09
2022-11-20T04:24:38.569Z,72738.13
2022-11-20T04:25:13.441Z,72740.09
2022-11-20T04:25:45.693Z,72738.13
2022-11-20T04:26:21.123Z,72738.13
2022-11-20T04:26:53.425Z,72740.09
2022-11-20T04:27:25.668Z,72740.09
2022-11-20T04:28:00.593Z,72740.09
2022-11-20T04:28:32.868Z,72738.13
2022-11-20T04:29:05.127Z,72740.09
2022-11-20T04:29:40.065Z,72742.09
2022-11-20T04:30:13.624Z,72738.13
2022-11-20T04:30:45.941Z,72738.13
2022-11-20T04:31:22.941Z,72738.13
2022-11-20T04:31:55.200Z,72734.13
2022-11-20T04:32:27.473Z,72736.13
2022-11-20T04:33:02.591Z,72736.13
2022-11-20T04:33:35.013Z,72738.13
2022-11-20T04:34:08.225Z,72742.09
2022-11-20T04:34:43.165Z,72746.09
2022-11-20T04:35:15.508Z,72738.13
2022-11-20T04:35:48.793Z,72742.09
2022-11-20T04:36:25.121Z,72736.13
2022-11-20T04:36:57.380Z,72736.13
2022-11-20T04:37:29.643Z,72738.13
2022-11-20T04:38:04.754Z,72740.09
2022-11-20T04:38:37.010Z,72742.09
2022-11-20T04:39:14.115Z,72742.09
2022-11-20T04:39:49.016Z,72738.13
2022-11-20T04:40:23.888Z,72736.13
2022-11-20T04:40:58.779Z,72740.09
2022-11-20T04:41:35.277Z,72738.13
2022-11-20T04:42:22.515Z,72740.09
2022-11-20T04:42:57.901Z,72742.09
2022-11-20T04:43:30.518Z,72746.09
2022-11-20T04:44:04.562Z,72740.09
2022-11-20T04:44:39.559Z,72746.09
2022-11-20T04:45:11.809Z,72738.13
2022-11-20T04:45:44.079Z,72744.09
2022-11-20T04:46:19.289Z,72742.09
2022-11-20T04:46:51.608Z,72742.09
2022-11-20T04:47:23.868Z,72748.09
2022-11-20T04:47:58.948Z,72750.09
2022-11-20T04:48:31.449Z,72750.09
2022-11-20T04:49:04.366Z,72750.09
2022-11-20T04:49:39.473Z,72746.09
2022-11-20T04:50:12.094Z,72746.09
2022-11-20T04:50:44.368Z,72746.09
2022-11-20T04:51:19.284Z,72748.09
2022-11-20T04:51:54.401Z,72750.09
2022-11-20T04:52:26.643Z,72750.09
2022-11-20T04:53:01.542Z,72750.09
2022-11-20T04:53:33.893Z,72746.09
2022-11-20T04:54:06.232Z,72746.09
2022-11-20T04:54:41.189Z,72746.09
2022-11-20T04:55:13.458Z,72746.09
2022-11-20T04:55:48.384Z,72744.09
2022-11-20T04:56:23.373Z,72734.13
2022-11-20T04:56:55.632Z,72744.09
2022-11-20T04:57:27.917Z,72744.09
2022-11-20T04:58:02.831Z,72750.09
2022-11-20T04:58:35.215Z,72746.09
2022-11-20T04:59:07.457Z,72744.09
2022-11-20T04:59:42.576Z,72742.09
2022-11-20T05:00:16.949Z,72746.09
2022-11-20T05:00:49.398Z,72744.09
2022-11-20T05:01:25.751Z,72746.09
2022-11-20T05:01:58.160Z,72754.09
2022-11-20T05:02:32.164Z,72746.09
2022-11-20T05:03:07.466Z,72746.09
2022-11-20T05:03:42.488Z,72746.09
2022-11-20T05:04:15.037Z,72744.09
2022-11-20T05:04:49.940Z,72748.09
2022-11-20T05:05:22.333Z,72742.09
2022-11-20T05:05:54.659Z,72746.09
2022-11-20T05:06:29.584Z,72746.09
2022-11-20T05:07:01.901Z,72746.09
2022-11-20T05:07:34.260Z,72746.09
2022-11-20T05:08:09.227Z,72746.09
2022-11-20T05:08:41.660Z,72746.09
2022-11-20T05:09:14.078Z,72742.09
2022-11-20T05:09:48.994Z,72746.09
2022-11-20T05:10:21.263Z,72742.09
2022-11-20T05:11:01.213Z,72744.09
2022-11-20T05:11:36.326Z,72744.09
2022-11-20T05:12:09.158Z,72744.09
2022-11-20T05:12:41.827Z,72744.09
2022-11-20T05:13:16.961Z,72746.09
2022-11-20T05:13:49.818Z,72734.13
2022-11-20T05:14:22.340Z,72742.09
2022-11-20T05:14:57.647Z,72736.13
2022-11-20T05:15:29.935Z,72740.09
2022-11-20T05:16:07.179Z,72742.09
2022-11-20T05:16:42.876Z,72746.09
2022-11-20T05:17:15.446Z,72742.09
2022-11-20T05:17:49.091Z,72746.09
2022-11-20T05:18:24.042Z,72742.09
2022-11-20T05:18:56.586Z,72746.09
2022-11-20T05:19:28.874Z,72744.09
2022-11-20T05:20:03.796Z,72746.09
2022-11-20T05:20:37.333Z,72748.09
2022-11-20T05:21:10.790Z,72746.09
2022-11-20T05:21:45.664Z,72750.09
2022-11-20T05:22:17.929Z,72748.09
2022-11-20T05:22:50.248Z,72744.09
2022-11-20T05:23:25.161Z,72750.09
2022-11-20T05:23:57.484Z,72746.09
2022-11-20T05:24:32.484Z,72744.09
2022-11-20T05:25:05.464Z,72742.09
2022-11-20T05:25:37.786Z,72742.09
2022-11-20T05:26:17.595Z,72750.09
2022-11-20T05:26:49.853Z,72750.09
2022-11-20T05:27:22.114Z,72746.09
2022-11-20T05:27:57.292Z,72742.09
2022-11-20T05:28:31.209Z,72750.09
2022-11-20T05:29:03.608Z,72750.09
2022-11-20T05:29:38.515Z,72748.09
2022-11-20T05:30:12.457Z,72746.09
2022-11-20T05:30:44.810Z,72750.09
2022-11-20T05:31:24.944Z,72750.09
2022-11-20T05:32:01.417Z,72750.09
2022-11-20T05:32:33.689Z,72758.06
2022-11-20T05:33:05.938Z,72752.09
2022-11-20T05:33:43.976Z,72748.09
2022-11-20T05:34:16.344Z,72758.06
2022-11-20T05:34:48.631Z,72750.09
2022-11-20T05:35:20.918Z,72754.09
2022-11-20T05:35:55.817Z,72758.06
2022-11-20T05:36:28.108Z,72758.06
2022-11-20T05:37:00.398Z,72762.06
2022-11-20T05:37:35.405Z,72756.06
2022-11-20T05:38:07.735Z,72766.06
2022-11-20T05:38:42.863Z,72762.06
2022-11-20T05:39:15.255Z,72762.06
2022-11-20T05:39:47.566Z,72762.06
2022-11-20T05:40:22.445Z,72762.06
2022-11-20T05:40:54.722Z,72762.06
2022-11-20T05:41:29.814Z,72770.06
2022-11-20T05:42:17.064Z,72762.06
2022-11-20T05:42:51.975Z,72766.06
2022-11-20T05:43:24.226Z,72774.03
2022-11-20T05:44:00.273Z,72770.06
2022-11-20T05:44:32.532Z,72762.06
2022-11-20T05:45:07.067Z,72770.06
2022-11-20T05:45:41.952Z,72766.06
2022-11-20T05:46:15.978Z,72762.06
2022-11-20T05:46:48.244Z,72770.06
2022-11-20T05:47:23.160Z,72764.06
2022-11-20T05:47:58.550Z,72770.06
2022-11-20T05:48:33.968Z,72766.06
2022-11-20T05:49:06.216Z,72768.06
2022-11-20T05:49:38.492Z,72766.06
2022-11-20T05:50:13.499Z,72766.06
2022-11-20T05:50:45.777Z,72766.06
2022-11-20T05:51:19.940Z,72762.06
2022-11-20T05:51:54.840Z,72762.06
2022-11-20T05:52:29.611Z,72762.06
2022-11-20T05:53:01.988Z,72762.06
2022-11-20T05:53:36.936Z,72762.06
2022-11-20T05:54:09.166Z,72764.06
2022-11-20T05:54:41.436Z,72762.06
2022-11-20T05:55:16.548Z,72762.06
2022-11-20T05:55:57.725Z,72760.06
2022-11-20T05:56:35.243Z,72766.06
2022-11-20T05:57:07.513Z,72762.06
2022-11-20T05:57:39.792Z,72758.06
2022-11-20T05:58:14.676Z,72762.06
2022-11-20T05:58:47.926Z,72762.06
2022-11-20T05:59:20.583Z,72764.06
2022-11-20T05:59:55.750Z,72762.06
2022-11-20T06:00:28.099Z,72762.06
2022-11-20T06:01:05.845Z,72774.03
2022-11-20T06:01:40.927Z,72782.03
2022-11-20T06:02:13.281Z,72801.97
2022-11-20T06:02:45.730Z,72813.97
2022-11-20T06:03:20.705Z,72825.94
2022-11-20T06:03:58.754Z,72851.88
2022-11-20T06:04:31.208Z,72861.88
2022-11-20T06:05:11.467Z,72873.84
2022-11-20T06:05:43.789Z,72887.81
2022-11-20T06:06:16.829Z,72893.81
2022-11-20T06:06:51.807Z,72905.78
2022-11-20T06:07:27.969Z,72917.75
2022-11-20T06:08:02.592Z,72917.75
2022-11-20T06:08:39.541Z,72921.75
2022-11-20T06:09:11.798Z,72933.72
2022-11-20T06:09:44.137Z,72939.72
2022-11-20T06:10:24.434Z,72949.69
2022-11-20T06:10:56.920Z,72953.69
2022-11-20T06:11:36.553Z,72955.69
2022-11-20T06:12:08.917Z,72969.66
2022-11-20T06:12:42.686Z,72967.66
2022-11-20T06:13:17.647Z,72971.66
2022-11-20T06:13:51.409Z,72969.66
2022-11-20T06:14:24.246Z,72973.63
2022-11-20T06:15:05.824Z,72975.63
2022-11-20T06:15:38.420Z,72977.63
2022-11-20T06:16:19.958Z,72981.63
2022-11-20T06:16:54.842Z,72985.63
2022-11-20T06:17:30.586Z,72985.63
2022-11-20T06:18:08.518Z,72989.59
2022-11-20T06:18:40.848Z,72983.63
2022-11-20T06:19:15.464Z,72981.63
2022-11-20T06:19:50.456Z,72983.63
2022-11-20T06:20:26.404Z,73001.59
2022-11-20T06:21:03.915Z,72999.59
2022-11-20T06:21:39.043Z,72997.59
2022-11-20T06:22:11.418Z,72997.59
2022-11-20T06:22:44.252Z,73005.56
2022-11-20T06:23:25.988Z,73001.59
2022-11-20T06:23:58.302Z,72997.59
2022-11-20T06:24:30.797Z,73003.59
2022-11-20T06:25:08.291Z,73001.59
2022-11-20T06:25:41.261Z,73005.56
2022-11-20T06:26:14.931Z,73005.56
2022-11-20T06:27:02.615Z,73005.56
2022-11-20T06:27:34.876Z,73005.56
2022-11-20T06:28:10.331Z,73009.56
2022-11-20T06:28:47.955Z,73005.56
2022-11-20T06:29:20.638Z,73001.59
2022-11-20T06:29:53.045Z,73005.56
2022-11-20T06:30:29.817Z,73013.56
2022-11-20T06:31:09.075Z,73009.56
2022-11-20T06:31:43.648Z,73011.56
2022-11-20T06:32:18.806Z,73007.56
2022-11-20T06:32:51.057Z,73009.56
2022-11-20T06:33:23.376Z,73017.56
2022-11-20T06:33:59.741Z,73013.56
2022-11-20T06:34:33.223Z,73005.56
2022-11-20T06:35:06.422Z,73017.56
2022-11-20T06:35:42.959Z,73013.56
2022-11-20T06:36:16.452Z,73015.56
2022-11-20T06:37:03.528Z,73013.56
2022-11-20T06:37:38.496Z,73009.56
2022-11-20T06:38:10.743Z,73013.56
2022-11-20T06:38:46.111Z,73013.56
2022-11-20T06:39:18.402Z,73017.56
2022-11-20T06:39:53.304Z,73013.56
2022-11-20T06:40:25.571Z,73017.56
2022-11-20T06:41:00.523Z,73015.56
2022-11-20T06:41:32.761Z,73019.56
2022-11-20T06:42:14.106Z,73019.56
2022-11-20T06:42:49.883Z,73019.56
2022-11-20T06:43:22.952Z,73021.56
2022-11-20T06:43:55.687Z,73019.56